Arctic Village Airport Arctic Village US
ICAO: PARC
IATA:
Category: Medium
Scheduled Services:

Elevation: 2092 ft
TransAlt. 18000 ft.

Airport Communications:
ANCHORAGE CNTR:135
AWOS 3:135.75
CTAF:122.9
FAIRBANKS RDO:122.1

PARC Zoom In..

Runways:

(A) RW 02 length 4500 ft width 75 ft
---- / hdg 19

(B) RW 20 length 4500 ft width 75 ft
---- / hdg 199

Location; PARC
Day. 24 / Time. 12.56 Zulu
* Altimeter: 29.68
* Temperature: 03° c. 37.4°f.
* Wind from: 010° Speed 04 kn.
Dewpoint: 00° c.
Visibility: 10 Statute Miles.
Clouds: Overcast 4500 ft.

PARC 241256Z AUTO 01004KT 10SM OVC045 03/00 A2968 RMK AO2 SLP086 T00330000


Wind From 010°
Speed 04 kn.

 
 
jpsmedia.com for Web Design SOUNDCLOUD worldairports.se 2018   terms of use